sensor_id;sensor_type;location;lat;lon;timestamp;pressure;altitude;pressure_sealevel;temperature;humidity
73338;BME280;61575;49.908;35.556;2024-03-23T00:55:50;99174.09;;;-1.51;83.68
73338;BME280;61575;49.908;35.556;2024-03-23T00:58:51;99177.78;;;-1.54;82.51
73338;BME280;61575;49.908;35.556;2024-03-23T01:01:52;99175.47;;;-1.58;82.65
73338;BME280;61575;49.908;35.556;2024-03-23T01:04:53;99177.56;;;-1.63;83.78
73338;BME280;61575;49.908;35.556;2024-03-23T01:07:54;99173.97;;;-1.62;84.10
73338;BME280;61575;49.908;35.556;2024-03-23T01:10:56;99174.53;;;-1.57;83.82
73338;BME280;61575;49.908;35.556;2024-03-23T01:13:57;99176.22;;;-1.56;83.40
73338;BME280;61575;49.908;35.556;2024-03-23T01:16:58;99170.84;;;-1.55;83.08
73338;BME280;61575;49.908;35.556;2024-03-23T01:19:59;99178.63;;;-1.53;83.07
73338;BME280;61575;49.908;35.556;2024-03-23T01:23:00;99170.09;;;-1.57;82.77
73338;BME280;61575;49.908;35.556;2024-03-23T01:26:01;99179.78;;;-1.57;83.76
73338;BME280;61575;49.908;35.556;2024-03-23T01:29:02;99175.88;;;-1.64;83.79
73338;BME280;61575;49.908;35.556;2024-03-23T01:32:03;99169.75;;;-1.65;84.67
73338;BME280;61575;49.908;35.556;2024-03-23T01:35:04;99184.50;;;-1.62;84.55
73338;BME280;61575;49.908;35.556;2024-03-23T01:38:05;99177.31;;;-1.73;85.33
73338;BME280;61575;49.908;35.556;2024-03-23T01:41:06;99176.38;;;-1.72;85.68
73338;BME280;61575;49.908;35.556;2024-03-23T01:44:07;99173.44;;;-1.67;85.28
73338;BME280;61575;49.908;35.556;2024-03-23T01:47:08;99167.13;;;-1.65;84.73
73338;BME280;61575;49.908;35.556;2024-03-23T01:50:10;99161.75;;;-1.63;84.81
73338;BME280;61575;49.908;35.556;2024-03-23T01:53:11;99164.28;;;-1.62;84.34
73338;BME280;61575;49.908;35.556;2024-03-23T01:56:13;99160.72;;;-1.61;84.47
73338;BME280;61575;49.908;35.556;2024-03-23T01:59:14;99157.53;;;-1.66;84.45
73338;BME280;61575;49.908;35.556;2024-03-23T02:02:15;99151.19;;;-1.76;84.98
73338;BME280;61575;49.908;35.556;2024-03-23T02:05:18;99155.63;;;-1.77;84.89
73338;BME280;61575;49.908;35.556;2024-03-23T02:08:20;99158.16;;;-1.75;84.59
73338;BME280;61575;49.908;35.556;2024-03-23T02:11:22;99157.22;;;-1.74;84.40
73338;BME280;61575;49.908;35.556;2024-03-23T02:14:23;99158.56;;;-1.81;85.08
73338;BME280;61575;49.908;35.556;2024-03-23T02:17:24;99151.72;;;-1.84;84.72
73338;BME280;61575;49.908;35.556;2024-03-23T02:20:24;99155.09;;;-1.82;85.03
73338;BME280;61575;49.908;35.556;2024-03-23T02:23:26;99153.19;;;-1.80;85.00
73338;BME280;61575;49.908;35.556;2024-03-23T02:26:26;99152.34;;;-1.80;84.82
73338;BME280;61575;49.908;35.556;2024-03-23T02:29:27;99153.69;;;-1.87;84.31
73338;BME280;61575;49.908;35.556;2024-03-23T02:32:28;99154.84;;;-1.91;84.79
73338;BME280;61575;49.908;35.556;2024-03-23T02:35:30;99155.38;;;-1.86;84.72
73338;BME280;61575;49.908;35.556;2024-03-23T02:38:30;99149.28;;;-1.87;84.41
73338;BME280;61575;49.908;35.556;2024-03-23T02:41:32;99144.00;;;-1.87;84.30
73338;BME280;61575;49.908;35.556;2024-03-23T02:44:32;99146.66;;;-1.87;84.49
73338;BME280;61575;49.908;35.556;2024-03-23T02:47:33;99137.91;;;-1.87;84.15
73338;BME280;61575;49.908;35.556;2024-03-23T02:50:34;99141.28;;;-1.85;84.40
73338;BME280;61575;49.908;35.556;2024-03-23T02:53:35;99133.44;;;-1.99;84.24
73338;BME280;61575;49.908;35.556;2024-03-23T02:56:36;99135.13;;;-1.98;83.92
73338;BME280;61575;49.908;35.556;2024-03-23T02:59:37;99119.25;;;-1.97;83.96
73338;BME280;61575;49.908;35.556;2024-03-23T03:02:38;99122.81;;;-1.98;83.12
73338;BME280;61575;49.908;35.556;2024-03-23T03:05:39;99127.34;;;-2.00;83.88
73338;BME280;61575;49.908;35.556;2024-03-23T03:08:40;99130.56;;;-2.09;84.28
73338;BME280;61575;49.908;35.556;2024-03-23T03:11:41;99129.53;;;-2.06;84.56
73338;BME280;61575;49.908;35.556;2024-03-23T03:14:42;99131.22;;;-2.05;84.45
73338;BME280;61575;49.908;35.556;2024-03-23T03:17:47;99127.66;;;-2.04;84.24
73338;BME280;61575;49.908;35.556;2024-03-23T03:20:48;99126.50;;;-2.00;84.00
73338;BME280;61575;49.908;35.556;2024-03-23T03:23:50;99122.19;;;-2.01;83.96
73338;BME280;61575;49.908;35.556;2024-03-23T03:26:53;99123.88;;;-2.00;84.35
73338;BME280;61575;49.908;35.556;2024-03-23T03:29:54;99119.34;;;-1.98;83.81
73338;BME280;61575;49.908;35.556;2024-03-23T03:32:55;99121.13;;;-1.99;83.89
73338;BME280;61575;49.908;35.556;2024-03-23T03:35:56;99118.31;;;-1.96;83.41
73338;BME280;61575;49.908;35.556;2024-03-23T03:38:57;99124.06;;;-2.03;83.44
73338;BME280;61575;49.908;35.556;2024-03-23T03:41:58;99120.91;;;-2.09;84.09
73338;BME280;61575;49.908;35.556;2024-03-23T03:45:01;99119.94;;;-2.08;83.90
73338;BME280;61575;49.908;35.556;2024-03-23T03:48:02;99121.84;;;-2.10;84.57
73338;BME280;61575;49.908;35.556;2024-03-23T03:51:03;99126.91;;;-2.06;85.22
73338;BME280;61575;49.908;35.556;2024-03-23T03:54:04;99123.31;;;-2.05;85.52
73338;BME280;61575;49.908;35.556;2024-03-23T03:57:05;99126.19;;;-1.96;85.64
73338;BME280;61575;49.908;35.556;2024-03-23T04:00:07;99123.16;;;-1.90;85.04
73338;BME280;61575;49.908;35.556;2024-03-23T04:03:11;99118.34;;;-1.83;84.94
73338;BME280;61575;49.908;35.556;2024-03-23T04:06:18;99115.41;;;-1.79;85.39
73338;BME280;61575;49.908;35.556;2024-03-23T04:09:19;99116.56;;;-1.70;85.00
73338;BME280;61575;49.908;35.556;2024-03-23T04:12:20;99112.38;;;-1.60;85.51
73338;BME280;61575;49.908;35.556;2024-03-23T04:15:21;99108.19;;;-1.50;85.39
73338;BME280;61575;49.908;35.556;2024-03-23T04:18:22;99099.44;;;-1.37;85.67
73338;BME280;61575;49.908;35.556;2024-03-23T04:21:24;99103.88;;;-1.25;85.91
73338;BME280;61575;49.908;35.556;2024-03-23T04:24:25;99097.97;;;-1.16;86.12
73338;BME280;61575;49.908;35.556;2024-03-23T04:27:27;99099.19;;;-1.09;86.68
73338;BME280;61575;49.908;35.556;2024-03-23T04:30:28;99092.94;;;-0.95;86.82
73338;BME280;61575;49.908;35.556;2024-03-23T04:33:30;99088.06;;;-0.76;86.86
73338;BME280;61575;49.908;35.556;2024-03-23T04:36:31;99088.53;;;-0.58;87.05
73338;BME280;61575;49.908;35.556;2024-03-23T04:39:31;99094.63;;;-0.45;87.62
73338;BME280;61575;49.908;35.556;2024-03-23T04:42:33;99091.94;;;-0.32;88.42
73338;BME280;61575;49.908;35.556;2024-03-23T04:45:34;99088.91;;;-0.15;88.83
73338;BME280;61575;49.908;35.556;2024-03-23T04:48:34;99083.09;;;0.04;89.14
73338;BME280;61575;49.908;35.556;2024-03-23T04:51:36;99084.38;;;0.22;89.63
73338;BME280;61575;49.908;35.556;2024-03-23T04:54:38;99081.06;;;0.42;90.11
73338;BME280;61575;49.908;35.556;2024-03-23T04:57:41;99068.84;;;0.64;89.17
73338;BME280;61575;49.908;35.556;2024-03-23T05:00:42;99076.56;;;0.78;89.14
73338;BME280;61575;49.908;35.556;2024-03-23T05:03:42;99068.28;;;0.94;88.43
73338;BME280;61575;49.908;35.556;2024-03-23T05:06:43;99072.00;;;1.02;87.92
73338;BME280;61575;49.908;35.556;2024-03-23T05:09:44;99070.56;;;1.09;88.17
73338;BME280;61575;49.908;35.556;2024-03-23T05:12:45;99078.22;;;1.24;87.88
73338;BME280;61575;49.908;35.556;2024-03-23T05:15:55;99082.19;;;1.40;87.96
73338;BME280;61575;49.908;35.556;2024-03-23T05:18:56;99077.34;;;1.57;87.77
73338;BME280;61575;49.908;35.556;2024-03-23T05:21:57;99083.19;;;1.71;87.15
73338;BME280;61575;49.908;35.556;2024-03-23T05:24:58;99093.50;;;1.86;87.16
73338;BME280;61575;49.908;35.556;2024-03-23T05:27:59;99089.84;;;1.98;87.15
73338;BME280;61575;49.908;35.556;2024-03-23T05:31:00;99091.75;;;2.07;86.26
73338;BME280;61575;49.908;35.556;2024-03-23T05:34:01;99092.53;;;2.19;86.27
73338;BME280;61575;49.908;35.556;2024-03-23T05:37:02;99087.06;;;2.31;85.88
73338;BME280;61575;49.908;35.556;2024-03-23T05:40:03;99080.72;;;2.43;85.49
73338;BME280;61575;49.908;35.556;2024-03-23T05:43:04;99080.41;;;2.58;85.11
73338;BME280;61575;49.908;35.556;2024-03-23T05:46:05;99078.00;;;2.75;84.99
73338;BME280;61575;49.908;35.556;2024-03-23T05:49:06;99084.22;;;2.95;84.72
73338;BME280;61575;49.908;35.556;2024-03-23T05:52:08;99084.91;;;3.18;84.58
73338;BME280;61575;49.908;35.556;2024-03-23T05:55:09;99076.88;;;3.39;83.99
73338;BME280;61575;49.908;35.556;2024-03-23T05:58:10;99080.81;;;3.54;83.09
73338;BME280;61575;49.908;35.556;2024-03-23T06:01:11;99083.78;;;3.70;82.51
73338;BME280;61575;49.908;35.556;2024-03-23T06:04:13;99082.16;;;3.98;82.88
73338;BME280;61575;49.908;35.556;2024-03-23T06:07:15;99087.16;;;4.21;81.93
73338;BME280;61575;49.908;35.556;2024-03-23T06:10:16;99093.59;;;4.37;80.88
73338;BME280;61575;49.908;35.556;2024-03-23T06:13:17;99075.25;;;4.54;80.56
73338;BME280;61575;49.908;35.556;2024-03-23T06:16:18;99075.63;;;4.68;80.02
73338;BME280;61575;49.908;35.556;2024-03-23T06:19:23;99077.56;;;4.86;79.58
73338;BME280;61575;49.908;35.556;2024-03-23T06:22:27;99076.97;;;5.01;78.31
73338;BME280;61575;49.908;35.556;2024-03-23T06:25:28;99077.88;;;5.20;78.11
73338;BME280;61575;49.908;35.556;2024-03-23T06:28:29;99078.19;;;5.44;77.40
73338;BME280;61575;49.908;35.556;2024-03-23T06:31:31;99066.66;;;5.53;75.75
73338;BME280;61575;49.908;35.556;2024-03-23T06:34:32;99070.41;;;5.78;75.99
73338;BME280;61575;49.908;35.556;2024-03-23T06:37:32;99078.34;;;5.88;74.40
73338;BME280;61575;49.908;35.556;2024-03-23T06:40:36;99072.16;;;5.69;73.61
73338;BME280;61575;49.908;35.556;2024-03-23T06:43:37;99071.94;;;5.81;73.91
73338;BME280;61575;49.908;35.556;2024-03-23T06:46:38;99070.81;;;6.01;73.41
73338;BME280;61575;49.908;35.556;2024-03-23T06:49:38;99070.97;;;6.17;73.07
73338;BME280;61575;49.908;35.556;2024-03-23T06:52:39;99068.22;;;6.09;71.58
73338;BME280;61575;49.908;35.556;2024-03-23T06:55:41;99072.88;;;6.25;71.21
73338;BME280;61575;49.908;35.556;2024-03-23T06:58:42;99073.78;;;6.16;70.96
73338;BME280;61575;49.908;35.556;2024-03-23T07:01:43;99061.28;;;6.34;71.51
73338;BME280;61575;49.908;35.556;2024-03-23T07:04:44;99069.50;;;6.41;70.41
73338;BME280;61575;49.908;35.556;2024-03-23T07:07:45;99065.91;;;6.50;70.46
73338;BME280;61575;49.908;35.556;2024-03-23T07:10:46;99061.69;;;6.65;69.71
73338;BME280;61575;49.908;35.556;2024-03-23T07:13:50;99064.78;;;6.78;69.71
73338;BME280;61575;49.908;35.556;2024-03-23T07:16:51;99066.66;;;6.86;69.43
73338;BME280;61575;49.908;35.556;2024-03-23T07:19:52;99073.53;;;6.88;68.72
73338;BME280;61575;49.908;35.556;2024-03-23T07:22:53;99070.63;;;6.82;68.57
73338;BME280;61575;49.908;35.556;2024-03-23T07:26:01;99066.88;;;6.92;68.59
73338;BME280;61575;49.908;35.556;2024-03-23T07:29:04;99066.41;;;7.23;68.97
73338;BME280;61575;49.908;35.556;2024-03-23T07:32:05;99055.44;;;7.34;68.15
73338;BME280;61575;49.908;35.556;2024-03-23T07:35:06;99054.75;;;7.32;65.88
73338;BME280;61575;49.908;35.556;2024-03-23T07:38:07;99051.31;;;7.48;66.86
73338;BME280;61575;49.908;35.556;2024-03-23T07:41:09;99048.84;;;7.62;66.75
73338;BME280;61575;49.908;35.556;2024-03-23T07:44:11;99053.53;;;7.60;65.83
73338;BME280;61575;49.908;35.556;2024-03-23T07:47:12;99044.84;;;7.58;65.93
73338;BME280;61575;49.908;35.556;2024-03-23T07:50:13;99044.31;;;7.55;65.48
73338;BME280;61575;49.908;35.556;2024-03-23T07:53:14;99045.19;;;7.63;64.84
73338;BME280;61575;49.908;35.556;2024-03-23T07:56:15;99040.72;;;7.80;64.51
73338;BME280;61575;49.908;35.556;2024-03-23T07:59:16;99033.06;;;7.93;64.29
73338;BME280;61575;49.908;35.556;2024-03-23T08:02:19;99033.91;;;8.18;63.81
73338;BME280;61575;49.908;35.556;2024-03-23T08:05:20;99035.91;;;8.16;62.33
73338;BME280;61575;49.908;35.556;2024-03-23T08:08:22;99020.34;;;7.95;61.41
73338;BME280;61575;49.908;35.556;2024-03-23T08:11:23;99014.03;;;8.13;62.47
73338;BME280;61575;49.908;35.556;2024-03-23T08:14:24;99009.69;;;8.28;61.98
73338;BME280;61575;49.908;35.556;2024-03-23T08:17:24;99000.31;;;8.40;60.42
73338;BME280;61575;49.908;35.556;2024-03-23T08:20:25;99000.31;;;8.40;60.45
73338;BME280;61575;49.908;35.556;2024-03-23T08:23:28;99000.44;;;8.63;60.74
73338;BME280;61575;49.908;35.556;2024-03-23T08:26:29;99001.84;;;8.98;60.34
73338;BME280;61575;49.908;35.556;2024-03-23T08:29:31;98999.59;;;9.26;59.55
73338;BME280;61575;49.908;35.556;2024-03-23T08:32:32;98995.78;;;9.51;58.64
73338;BME280;61575;49.908;35.556;2024-03-23T08:35:33;98986.84;;;9.59;57.25
73338;BME280;61575;49.908;35.556;2024-03-23T08:38:35;98989.00;;;9.64;57.69
73338;BME280;61575;49.908;35.556;2024-03-23T08:41:36;98988.06;;;9.79;57.80
73338;BME280;61575;49.908;35.556;2024-03-23T08:44:37;98989.75;;;10.03;57.52
73338;BME280;61575;49.908;35.556;2024-03-23T08:47:38;98982.53;;;10.04;56.73
73338;BME280;61575;49.908;35.556;2024-03-23T08:50:39;98983.06;;;9.99;56.23
73338;BME280;61575;49.908;35.556;2024-03-23T08:53:40;98980.97;;;10.09;55.85
73338;BME280;61575;49.908;35.556;2024-03-23T08:56:41;98978.22;;;10.17;55.57
73338;BME280;61575;49.908;35.556;2024-03-23T08:59:42;98978.88;;;10.19;55.27
73338;BME280;61575;49.908;35.556;2024-03-23T09:02:47;98977.34;;;10.02;55.06
73338;BME280;61575;49.908;35.556;2024-03-23T09:05:49;98982.47;;;10.12;55.89
73338;BME280;61575;49.908;35.556;2024-03-23T09:08:50;98984.66;;;10.08;55.78
73338;BME280;61575;49.908;35.556;2024-03-23T09:11:51;98986.81;;;9.90;54.69
73338;BME280;61575;49.908;35.556;2024-03-23T09:14:52;98975.44;;;10.11;55.34
73338;BME280;61575;49.908;35.556;2024-03-23T09:17:54;98969.34;;;10.17;54.95
73338;BME280;61575;49.908;35.556;2024-03-23T09:20:54;98971.53;;;10.13;54.73
73338;BME280;61575;49.908;35.556;2024-03-23T09:23:55;98973.56;;;10.11;54.68
73338;BME280;61575;49.908;35.556;2024-03-23T09:27:04;98969.50;;;10.15;54.70
73338;BME280;61575;49.908;35.556;2024-03-23T09:30:05;98965.75;;;10.24;54.92
73338;BME280;61575;49.908;35.556;2024-03-23T09:33:06;98961.69;;;10.29;54.14
73338;BME280;61575;49.908;35.556;2024-03-23T09:36:08;98966.69;;;10.32;53.67
73338;BME280;61575;49.908;35.556;2024-03-23T09:39:09;98959.06;;;10.20;53.34
73338;BME280;61575;49.908;35.556;2024-03-23T09:42:10;98947.47;;;10.05;52.06
73338;BME280;61575;49.908;35.556;2024-03-23T09:45:17;98943.41;;;10.09;52.27
73338;BME280;61575;49.908;35.556;2024-03-23T09:48:19;98946.69;;;10.19;52.40
73338;BME280;61575;49.908;35.556;2024-03-23T09:51:20;98944.94;;;10.26;52.64
73338;BME280;61575;49.908;35.556;2024-03-23T09:54:21;98936.63;;;10.51;52.14
73338;BME280;61575;49.908;35.556;2024-03-23T09:57:23;98928.59;;;10.66;51.79
73338;BME280;61575;49.908;35.556;2024-03-23T10:00:24;98919.72;;;10.95;51.93
73338;BME280;61575;49.908;35.556;2024-03-23T10:03:26;98916.94;;;11.03;50.63
73338;BME280;61575;49.908;35.556;2024-03-23T10:06:27;98916.72;;;11.19;50.37
73338;BME280;61575;49.908;35.556;2024-03-23T10:09:28;98919.06;;;11.07;49.44
73338;BME280;61575;49.908;35.556;2024-03-23T10:12:29;98921.31;;;11.40;49.71
73338;BME280;61575;49.908;35.556;2024-03-23T10:15:30;98916.53;;;11.57;48.67
73338;BME280;61575;49.908;35.556;2024-03-23T10:18:38;98911.22;;;11.63;47.08
73338;BME280;61575;49.908;35.556;2024-03-23T10:21:39;98912.56;;;11.74;47.26
73338;BME280;61575;49.908;35.556;2024-03-23T10:24:41;98901.72;;;11.88;47.53
73338;BME280;61575;49.908;35.556;2024-03-23T10:27:42;98899.09;;;12.16;47.93
73338;BME280;61575;49.908;35.556;2024-03-23T10:30:44;98892.41;;;12.34;47.12
73338;BME280;61575;49.908;35.556;2024-03-23T10:33:46;98882.66;;;12.33;47.08
73338;BME280;61575;49.908;35.556;2024-03-23T10:36:47;98878.47;;;12.58;46.17
73338;BME280;61575;49.908;35.556;2024-03-23T10:39:48;98876.50;;;12.80;46.72
73338;BME280;61575;49.908;35.556;2024-03-23T10:42:49;98871.94;;;12.74;45.64
73338;BME280;61575;49.908;35.556;2024-03-23T10:45:51;98868.66;;;12.44;44.04
73338;BME280;61575;49.908;35.556;2024-03-23T10:48:52;98862.16;;;12.66;45.80
73338;BME280;61575;49.908;35.556;2024-03-23T10:51:53;98858.63;;;12.66;45.05
73338;BME280;61575;49.908;35.556;2024-03-23T10:54:55;98859.31;;;12.81;46.17
73338;BME280;61575;49.908;35.556;2024-03-23T10:57:57;98857.28;;;12.90;45.56
73338;BME280;61575;49.908;35.556;2024-03-23T11:01:00;98850.63;;;12.86;45.30
73338;BME280;61575;49.908;35.556;2024-03-23T11:04:01;98847.69;;;12.74;45.04
73338;BME280;61575;49.908;35.556;2024-03-23T11:07:02;98850.56;;;12.72;45.56
73338;BME280;61575;49.908;35.556;2024-03-23T11:10:26;98839.22;;;12.83;44.83
73338;BME280;61575;49.908;35.556;2024-03-23T11:13:29;98842.31;;;12.80;44.38
73338;BME280;61575;49.908;35.556;2024-03-23T11:16:30;98831.44;;;12.61;44.63
73338;BME280;61575;49.908;35.556;2024-03-23T11:19:34;98832.16;;;12.76;45.48
73338;BME280;61575;49.908;35.556;2024-03-23T11:22:39;98827.94;;;12.60;45.55
73338;BME280;61575;49.908;35.556;2024-03-23T11:25:40;98823.84;;;12.71;45.38
73338;BME280;61575;49.908;35.556;2024-03-23T11:28:41;98818.94;;;12.94;45.41
73338;BME280;61575;49.908;35.556;2024-03-23T11:31:51;98815.47;;;13.07;44.65
73338;BME280;61575;49.908;35.556;2024-03-23T11:34:52;98818.00;;;13.28;45.72
73338;BME280;61575;49.908;35.556;2024-03-23T11:38:18;98809.72;;;13.30;45.29
73338;BME280;61575;49.908;35.556;2024-03-23T11:41:19;98809.69;;;13.23;44.69
73338;BME280;61575;49.908;35.556;2024-03-23T11:44:22;98812.19;;;13.25;44.46
73338;BME280;61575;49.908;35.556;2024-03-23T11:47:23;98803.28;;;13.31;44.98
73338;BME280;61575;49.908;35.556;2024-03-23T11:50:25;98796.00;;;13.25;45.00
73338;BME280;61575;49.908;35.556;2024-03-23T11:53:26;98787.16;;;13.44;45.34
73338;BME280;61575;49.908;35.556;2024-03-23T11:56:31;98788.78;;;13.32;44.70
73338;BME280;61575;49.908;35.556;2024-03-23T12:02:36;98786.47;;;13.15;45.01
73338;BME280;61575;49.908;35.556;2024-03-23T12:05:37;98788.50;;;13.07;45.89
73338;BME280;61575;49.908;35.556;2024-03-23T12:08:39;98783.53;;;13.10;45.84
73338;BME280;61575;49.908;35.556;2024-03-23T12:11:40;98785.00;;;13.13;46.05
73338;BME280;61575;49.908;35.556;2024-03-23T12:14:44;98777.97;;;13.25;46.47
73338;BME280;61575;49.908;35.556;2024-03-23T12:17:46;98774.91;;;13.41;46.38
73338;BME280;61575;49.908;35.556;2024-03-23T12:20:47;98765.56;;;13.44;46.00
73338;BME280;61575;49.908;35.556;2024-03-23T12:23:49;98765.78;;;13.42;45.80
73338;BME280;61575;49.908;35.556;2024-03-23T12:26:50;98768.06;;;13.52;45.73
73338;BME280;61575;49.908;35.556;2024-03-23T12:29:51;98767.44;;;13.57;45.64
73338;BME280;61575;49.908;35.556;2024-03-23T12:32:58;98761.22;;;13.69;45.64
73338;BME280;61575;49.908;35.556;2024-03-23T12:35:59;98760.81;;;13.66;45.77
73338;BME280;61575;49.908;35.556;2024-03-23T12:39:00;98748.34;;;13.65;45.77
73338;BME280;61575;49.908;35.556;2024-03-23T12:42:02;98750.41;;;13.76;46.02
73338;BME280;61575;49.908;35.556;2024-03-23T12:45:06;98742.31;;;13.76;45.66
73338;BME280;61575;49.908;35.556;2024-03-23T12:48:07;98740.03;;;13.73;45.57
73338;BME280;61575;49.908;35.556;2024-03-23T12:51:08;98739.00;;;13.61;45.64
73338;BME280;61575;49.908;35.556;2024-03-23T12:54:10;98730.94;;;13.47;45.65
73338;BME280;61575;49.908;35.556;2024-03-23T12:57:11;98718.06;;;13.43;45.73
73338;BME280;61575;49.908;35.556;2024-03-23T13:00:12;98713.50;;;13.43;46.25
73338;BME280;61575;49.908;35.556;2024-03-23T13:03:15;98709.75;;;13.51;46.44
73338;BME280;61575;49.908;35.556;2024-03-23T13:06:19;98701.25;;;13.41;46.21
73338;BME280;61575;49.908;35.556;2024-03-23T13:09:20;98700.63;;;13.45;46.62
73338;BME280;61575;49.908;35.556;2024-03-23T13:12:21;98699.81;;;13.45;46.42
73338;BME280;61575;49.908;35.556;2024-03-23T13:15:22;98701.66;;;13.44;46.36
73338;BME280;61575;49.908;35.556;2024-03-23T13:18:23;98706.38;;;13.03;46.38
73338;BME280;61575;49.908;35.556;2024-03-23T13:21:24;98702.03;;;13.02;46.63
73338;BME280;61575;49.908;35.556;2024-03-23T13:24:26;98697.25;;;12.97;46.87
73338;BME280;61575;49.908;35.556;2024-03-23T13:27:27;98693.75;;;13.03;47.02
73338;BME280;61575;49.908;35.556;2024-03-23T13:30:28;98694.56;;;12.97;46.66
73338;BME280;61575;49.908;35.556;2024-03-23T13:37:34;98675.66;;;12.71;47.06
73338;BME280;61575;49.908;35.556;2024-03-23T13:40:34;98682.50;;;12.73;47.70
73338;BME280;61575;49.908;35.556;2024-03-23T13:43:37;98686.44;;;12.71;47.53
73338;BME280;61575;49.908;35.556;2024-03-23T13:46:39;98678.75;;;12.68;47.59
73338;BME280;61575;49.908;35.556;2024-03-23T13:49:40;98674.19;;;12.68;47.83
73338;BME280;61575;49.908;35.556;2024-03-23T13:52:41;98662.78;;;12.60;47.63
73338;BME280;61575;49.908;35.556;2024-03-23T13:55:48;98674.13;;;12.42;47.07
73338;BME280;61575;49.908;35.556;2024-03-23T13:58:50;98669.75;;;12.34;48.01
73338;BME280;61575;49.908;35.556;2024-03-23T14:01:51;98684.06;;;12.35;47.93
73338;BME280;61575;49.908;35.556;2024-03-23T14:04:52;98681.09;;;12.23;47.96
73338;BME280;61575;49.908;35.556;2024-03-23T14:07:53;98680.28;;;12.23;48.44
73338;BME280;61575;49.908;35.556;2024-03-23T14:10:54;98682.59;;;12.32;48.68
73338;BME280;61575;49.908;35.556;2024-03-23T14:13:55;98674.91;;;12.29;48.49
73338;BME280;61575;49.908;35.556;2024-03-23T14:16:56;98675.53;;;12.25;48.91
73338;BME280;61575;49.908;35.556;2024-03-23T14:19:57;98668.91;;;12.27;48.91
73338;BME280;61575;49.908;35.556;2024-03-23T14:23:01;98671.13;;;12.17;49.24
73338;BME280;61575;49.908;35.556;2024-03-23T14:26:02;98676.91;;;12.07;49.40
73338;BME280;61575;49.908;35.556;2024-03-23T14:29:04;98676.41;;;11.97;49.80
73338;BME280;61575;49.908;35.556;2024-03-23T14:32:05;98664.94;;;11.82;49.87
73338;BME280;61575;49.908;35.556;2024-03-23T14:35:07;98663.84;;;11.70;50.28
73338;BME280;61575;49.908;35.556;2024-03-23T14:38:10;98660.66;;;11.60;50.51
73338;BME280;61575;49.908;35.556;2024-03-23T14:41:11;98649.00;;;11.46;51.08
73338;BME280;61575;49.908;35.556;2024-03-23T14:44:12;98654.81;;;11.49;51.06
73338;BME280;61575;49.908;35.556;2024-03-23T14:47:13;98652.31;;;11.48;51.33
73338;BME280;61575;49.908;35.556;2024-03-23T14:50:14;98648.75;;;11.41;51.48
73338;BME280;61575;49.908;35.556;2024-03-23T14:53:17;98653.88;;;11.36;51.79
73338;BME280;61575;49.908;35.556;2024-03-23T14:56:17;98654.88;;;11.28;51.91
73338;BME280;61575;49.908;35.556;2024-03-23T14:59:19;98650.03;;;11.17;52.71
73338;BME280;61575;49.908;35.556;2024-03-23T15:02:20;98650.56;;;11.06;52.93
73338;BME280;61575;49.908;35.556;2024-03-23T15:05:21;98645.31;;;10.98;53.71
73338;BME280;61575;49.908;35.556;2024-03-23T15:08:22;98638.03;;;10.92;53.67
73338;BME280;61575;49.908;35.556;2024-03-23T15:11:23;98639.78;;;10.78;53.89
73338;BME280;61575;49.908;35.556;2024-03-23T15:14:24;98638.88;;;10.71;54.15
73338;BME280;61575;49.908;35.556;2024-03-23T15:17:25;98637.97;;;10.64;54.54
73338;BME280;61575;49.908;35.556;2024-03-23T15:20:26;98643.84;;;10.52;54.62
73338;BME280;61575;49.908;35.556;2024-03-23T15:23:27;98639.41;;;10.45;54.99
73338;BME280;61575;49.908;35.556;2024-03-23T15:26:28;98643.88;;;10.38;55.19
73338;BME280;61575;49.908;35.556;2024-03-23T15:29:29;98645.03;;;10.29;55.44
73338;BME280;61575;49.908;35.556;2024-03-23T15:32:30;98649.13;;;10.10;55.98
73338;BME280;61575;49.908;35.556;2024-03-23T15:35:31;98646.00;;;10.06;56.25
73338;BME280;61575;49.908;35.556;2024-03-23T15:38:32;98656.84;;;9.98;56.52
73338;BME280;61575;49.908;35.556;2024-03-23T15:41:33;98654.44;;;9.88;56.74
73338;BME280;61575;49.908;35.556;2024-03-23T15:44:36;98653.72;;;9.80;57.01
73338;BME280;61575;49.908;35.556;2024-03-23T15:47:37;98651.50;;;9.69;57.25
73338;BME280;61575;49.908;35.556;2024-03-23T15:50:38;98649.09;;;9.59;57.50
73338;BME280;61575;49.908;35.556;2024-03-23T15:53:39;98651.50;;;9.54;57.85
73338;BME280;61575;49.908;35.556;2024-03-23T15:56:40;98651.75;;;9.44;58.10
73338;BME280;61575;49.908;35.556;2024-03-23T15:59:41;98646.31;;;9.38;58.23
73338;BME280;61575;49.908;35.556;2024-03-23T16:02:43;98650.38;;;9.34;58.57
73338;BME280;61575;49.908;35.556;2024-03-23T16:05:50;98648.00;;;9.24;58.97
73338;BME280;61575;49.908;35.556;2024-03-23T16:08:52;98652.41;;;9.17;59.18
73338;BME280;61575;49.908;35.556;2024-03-23T16:11:53;98652.44;;;9.09;59.45
73338;BME280;61575;49.908;35.556;2024-03-23T16:14:54;98659.19;;;9.05;59.54
73338;BME280;61575;49.908;35.556;2024-03-23T16:17:54;98661.75;;;8.98;59.69
73338;BME280;61575;49.908;35.556;2024-03-23T16:21:00;98662.94;;;8.95;59.90
73338;BME280;61575;49.908;35.556;2024-03-23T16:24:01;98663.00;;;8.87;60.07
73338;BME280;61575;49.908;35.556;2024-03-23T16:27:03;98666.41;;;8.81;60.30
73338;BME280;61575;49.908;35.556;2024-03-23T16:30:04;98662.25;;;8.79;60.54
73338;BME280;61575;49.908;35.556;2024-03-23T16:33:05;98667.47;;;8.72;60.90
73338;BME280;61575;49.908;35.556;2024-03-23T16:36:10;98673.19;;;8.69;60.82
73338;BME280;61575;49.908;35.556;2024-03-23T16:39:14;98670.41;;;8.62;61.11
73338;BME280;61575;49.908;35.556;2024-03-23T16:42:16;98674.25;;;8.60;61.21
73338;BME280;61575;49.908;35.556;2024-03-23T16:45:18;98684.13;;;8.59;61.28
73338;BME280;61575;49.908;35.556;2024-03-23T16:48:19;98678.47;;;8.54;61.50
73338;BME280;61575;49.908;35.556;2024-03-23T16:51:20;98684.38;;;8.50;61.66
73338;BME280;61575;49.908;35.556;2024-03-23T16:54:21;98676.69;;;8.47;61.93